Time;durP1;ratioP1;P1;durP2;ratioP2;P2;SDS_P1;SDS_P2;PMS_P1;PMS_P2;Temp;Humidity;BMP_temperature;BMP_pressure;BME280_temperature;BME280_humidity;BME280_pressure;Samples;Min_cycle;Max_cycle;Signal;HPM_P1;HPM_P2
2022/12/23 00:00:54;;;;;;;16.07;5.80;;;10.50;99.90;;;;;;5006023;28;20480;-79
2022/12/23 00:03:23;;;;;;;12.20;4.70;;;10.50;99.90;;;;;;5001009;28;20468;-80
2022/12/23 00:05:50;;;;;;;14.20;5.37;;;10.60;99.90;;;;;;5023456;28;20453;-79
2022/12/23 00:08:18;;;;;;;21.93;5.33;;;10.60;99.90;;;;;;5031615;28;21041;-79
2022/12/23 00:10:45;;;;;;;21.73;5.80;;;10.60;99.90;;;;;;5029340;28;20475;-81
2022/12/23 00:16:05;;;;;;;11.60;5.30;;;10.60;99.90;;;;;;5005490;28;21038;-81
2022/12/23 00:18:33;;;;;;;11.77;5.33;;;10.60;99.90;;;;;;5017535;28;21079;-80
2022/12/23 00:21:01;;;;;;;10.13;5.30;;;10.60;99.90;;;;;;5002567;28;20490;-80
2022/12/23 00:23:28;;;;;;;13.67;7.10;;;10.60;99.90;;;;;;5018570;28;20458;-80
2022/12/23 00:25:55;;;;;;;12.93;4.70;;;10.60;99.90;;;;;;5017009;28;20456;-80
2022/12/23 00:28:24;;;;;;;15.37;6.30;;;10.60;99.90;;;;;;5018041;28;20461;-81
2022/12/23 00:30:53;;;;;;;12.00;5.40;;;10.60;99.90;;;;;;5000494;28;20483;-79
2022/12/23 00:33:24;;;;;;;16.67;7.07;;;10.50;99.90;;;;;;4999243;28;20456;-82
2022/12/23 00:35:53;;;;;;;12.77;6.60;;;10.60;99.90;;;;;;4999628;28;20482;-81
2022/12/23 00:42:52;;;;;;;15.80;7.00;;;10.60;99.90;;;;;;4998280;28;20458;-80
2022/12/23 00:43:56;;;;;;;18.10;6.93;;;10.70;99.90;;;;;;5018073;28;20503;-81
2022/12/23 00:46:23;;;;;;;13.20;7.13;;;10.60;99.90;;;;;;5018383;28;20454;-81
2022/12/23 00:51:35;;;;;;;17.73;6.13;;;10.60;99.90;;;;;;5017907;28;20467;-80
2022/12/23 00:54:02;;;;;;;12.83;5.97;;;10.70;99.90;;;;;;5004205;28;20942;-80
2022/12/23 00:56:29;;;;;;;14.27;6.53;;;10.70;99.90;;;;;;5001807;28;20492;-80
2022/12/23 00:58:56;;;;;;;12.37;6.00;;;10.70;99.90;;;;;;5009143;28;20464;-80
2022/12/23 01:06:56;;;;;;;9.67;5.40;;;10.50;99.90;;;;;;5016880;28;20562;-82
2022/12/23 01:09:23;;;;;;;11.13;4.80;;;10.50;99.90;;;;;;5015037;28;20458;-83
2022/12/23 01:11:50;;;;;;;12.93;6.00;;;10.60;99.90;;;;;;5016160;28;20449;-82
2022/12/23 01:14:17;;;;;;;12.70;4.97;;;10.60;99.90;;;;;;5016759;28;20472;-82
2022/12/23 01:16:44;;;;;;;19.67;6.43;;;10.60;99.90;;;;;;5017257;28;20499;-82
2022/12/23 01:19:11;;;;;;;9.53;5.77;;;10.60;99.90;;;;;;5009034;28;20913;-80
2022/12/23 01:21:38;;;;;;;10.73;5.73;;;10.60;99.90;;;;;;4996863;28;20494;-80
2022/12/23 01:24:07;;;;;;;11.93;7.03;;;10.60;99.90;;;;;;5007928;28;20472;-81
2022/12/23 01:26:34;;;;;;;12.93;6.27;;;10.50;99.90;;;;;;5017038;28;20455;-81
2022/12/23 01:29:01;;;;;;;10.93;5.37;;;10.50;99.90;;;;;;5008487;28;20452;-82
2022/12/23 01:31:28;;;;;;;14.13;6.93;;;10.50;99.90;;;;;;5017511;28;20449;-81
2022/12/23 01:33:56;;;;;;;16.57;7.60;;;10.50;99.90;;;;;;5005218;28;20481;-81
2022/12/23 01:36:23;;;;;;;12.83;6.47;;;10.50;99.90;;;;;;5001215;28;20507;-80
2022/12/23 01:38:50;;;;;;;9.90;6.77;;;10.40;99.90;;;;;;4997775;28;20553;-81
2022/12/23 01:44:00;;;;;;;13.83;6.80;;;10.40;99.90;;;;;;5009801;28;21083;-81
2022/12/23 01:46:27;;;;;;;11.83;7.00;;;10.40;99.90;;;;;;5011857;28;20452;-81
2022/12/23 01:48:54;;;;;;;14.50;7.27;;;10.40;99.90;;;;;;4995657;28;20456;-81
2022/12/23 01:51:25;;;;;;;11.57;7.50;;;10.40;99.90;;;;;;5012849;28;20852;-82
2022/12/23 01:53:56;;;;;;;13.03;7.63;;;10.40;99.90;;;;;;5006691;28;20478;-81
2022/12/23 01:56:28;;;;;;;13.80;8.07;;;10.40;99.90;;;;;;5013500;28;20491;-81
2022/12/23 01:58:58;;;;;;;18.87;8.80;;;10.40;99.90;;;;;;5014952;28;20853;-81
2022/12/23 02:04:26;;;;;;;12.33;8.90;;;10.40;99.90;;;;;;4935418;29;20472;-81
2022/12/23 02:09:40;;;;;;;19.23;10.60;;;10.40;99.90;;;;;;4968914;28;20468;-80
2022/12/23 02:12:38;;;;;;;19.60;11.10;;;10.40;99.90;;;;;;4997988;28;20458;-80
2022/12/23 02:18:30;;;;;;;14.33;10.07;;;10.30;99.90;;;;;;4998649;28;20496;-81
2022/12/23 02:21:10;;;;;;;16.37;10.33;;;10.40;99.90;;;;;;5001355;28;20460;-80
2022/12/23 02:24:14;;;;;;;16.63;11.20;;;10.40;99.90;;;;;;5014116;28;20476;-82
2022/12/23 02:27:08;;;;;;;20.43;11.63;;;10.40;99.90;;;;;;5021542;28;20536;-81
2022/12/23 02:30:11;;;;;;;22.63;11.87;;;10.40;99.90;;;;;;4981299;28;20461;-80
2022/12/23 02:32:57;;;;;;;14.67;10.63;;;10.40;99.90;;;;;;5006360;28;20455;-80
2022/12/23 02:35:29;;;;;;;13.07;10.60;;;10.40;99.90;;;;;;4995009;28;20467;-78
2022/12/23 02:38:02;;;;;;;14.50;10.17;;;10.40;99.90;;;;;;5007058;28;20980;-78
2022/12/23 02:40:38;;;;;;;15.00;10.60;;;10.40;99.90;;;;;;5014890;28;20499;-79
2022/12/23 02:43:12;;;;;;;16.33;10.77;;;10.40;99.90;;;;;;5013143;28;20553;-79
2022/12/23 02:45:43;;;;;;;16.43;10.83;;;10.40;99.90;;;;;;5014330;28;20951;-80
2022/12/23 02:48:15;;;;;;;16.20;10.03;;;10.50;99.90;;;;;;4994396;28;20445;-80
2022/12/23 02:50:45;;;;;;;14.63;10.40;;;10.50;99.90;;;;;;4995168;28;20463;-79
2022/12/23 02:53:18;;;;;;;16.80;10.67;;;10.40;99.90;;;;;;4993967;28;20485;-80
2022/12/23 02:55:48;;;;;;;21.40;10.47;;;10.50;99.90;;;;;;5012895;28;20461;-80
2022/12/23 02:58:19;;;;;;;14.63;11.43;;;10.50;99.90;;;;;;5013104;28;20496;-79
2022/12/23 03:00:48;;;;;;;16.90;11.70;;;10.50;99.90;;;;;;4995409;28;20565;-80
2022/12/23 03:03:19;;;;;;;12.70;10.40;;;10.50;99.90;;;;;;4994620;28;20485;-80
2022/12/23 03:05:49;;;;;;;17.77;12.37;;;10.50;99.90;;;;;;5010853;28;20999;-78
2022/12/23 03:08:22;;;;;;;16.67;10.90;;;10.50;99.90;;;;;;5002293;28;20457;-80
2022/12/23 03:11:01;;;;;;;19.50;13.80;;;10.50;99.90;;;;;;4994674;28;20445;-78
2022/12/23 03:13:39;;;;;;;19.40;12.67;;;10.50;99.90;;;;;;5007060;28;20503;-80
2022/12/23 03:16:17;;;;;;;21.17;14.47;;;10.40;99.90;;;;;;5014239;28;20463;-78
2022/12/23 03:18:58;;;;;;;22.00;14.07;;;10.40;99.90;;;;;;4995876;28;20446;-80
2022/12/23 03:21:34;;;;;;;28.23;16.93;;;10.40;99.90;;;;;;4995710;28;20452;-78
2022/12/23 03:24:07;;;;;;;27.23;16.40;;;10.40;99.90;;;;;;5013756;28;20479;-79
2022/12/23 03:26:38;;;;;;;27.60;18.03;;;10.40;99.90;;;;;;5016709;28;20445;-78
2022/12/23 03:29:12;;;;;;;23.50;16.40;;;10.40;99.90;;;;;;4997850;28;20563;-79
2022/12/23 03:31:41;;;;;;;19.90;15.23;;;10.50;99.90;;;;;;4998065;28;20451;-79
2022/12/23 03:34:14;;;;;;;28.30;15.90;;;10.50;99.90;;;;;;5016350;28;20473;-78
2022/12/23 03:36:46;;;;;;;19.83;15.53;;;10.40;99.90;;;;;;5004513;28;20485;-79
2022/12/23 03:39:19;;;;;;;22.27;14.97;;;10.40;99.90;;;;;;4997308;28;21086;-77
2022/12/23 03:41:52;;;;;;;21.30;14.40;;;10.40;99.90;;;;;;5010908;28;20455;-80
2022/12/23 03:44:24;;;;;;;15.10;12.73;;;10.40;99.90;;;;;;5017477;28;20480;-78
2022/12/23 03:46:56;;;;;;;14.07;11.87;;;10.40;99.90;;;;;;5004667;28;20459;-80
2022/12/23 03:49:28;;;;;;;16.93;12.53;;;10.40;99.90;;;;;;4997842;28;20450;-79
2022/12/23 03:52:00;;;;;;;16.20;12.03;;;10.40;99.90;;;;;;4998689;28;20457;-79
2022/12/23 03:54:31;;;;;;;17.90;12.10;;;10.40;99.90;;;;;;4998033;28;20474;-79
2022/12/23 03:57:02;;;;;;;16.23;12.83;;;10.50;99.90;;;;;;5010255;28;20488;-79
2022/12/23 03:59:33;;;;;;;18.33;12.07;;;10.40;99.90;;;;;;5016519;28;20461;-78
2022/12/23 04:02:07;;;;;;;18.90;12.57;;;10.40;99.90;;;;;;5004370;28;20865;-80
2022/12/23 04:04:48;;;;;;;20.07;12.53;;;10.40;99.90;;;;;;4997975;28;20477;-79
2022/12/23 04:07:20;;;;;;;16.30;11.53;;;10.40;99.90;;;;;;5011384;28;20451;-78
2022/12/23 04:09:47;;;;;;;17.30;14.07;;;10.50;99.90;;;;;;5016401;28;20458;-81
2022/12/23 04:12:15;;;;;;;19.70;13.80;;;10.50;99.90;;;;;;5003954;28;20457;-78
2022/12/23 04:14:46;;;;;;;18.57;12.70;;;10.50;99.90;;;;;;5003810;28;20490;-77
2022/12/23 04:17:14;;;;;;;22.20;12.57;;;10.50;99.90;;;;;;5017856;28;20499;-80
2022/12/23 04:19:44;;;;;;;19.63;13.50;;;10.50;99.90;;;;;;5015511;28;20525;-79
2022/12/23 04:22:11;;;;;;;21.63;14.77;;;10.60;99.90;;;;;;5016978;28;21150;-79
2022/12/23 04:24:38;;;;;;;19.60;14.00;;;10.50;99.90;;;;;;5011801;28;20518;-78
2022/12/23 04:27:04;;;;;;;28.77;15.43;;;10.50;99.90;;;;;;4997298;28;20459;-78
2022/12/23 04:29:31;;;;;;;24.00;17.70;;;10.50;99.90;;;;;;4997732;28;20463;-80
2022/12/23 04:31:58;;;;;;;18.23;14.33;;;10.50;99.90;;;;;;4997295;28;20453;-78
2022/12/23 04:34:25;;;;;;;29.17;16.27;;;10.50;99.90;;;;;;4998006;28;20474;-79
2022/12/23 04:36:53;;;;;;;25.60;16.87;;;10.40;99.90;;;;;;5014733;28;21021;-78
2022/12/23 04:39:20;;;;;;;27.10;16.17;;;10.40;99.90;;;;;;5014710;28;20463;-79
2022/12/23 04:41:47;;;;;;;23.93;13.83;;;10.40;99.90;;;;;;4997499;28;20461;-79
2022/12/23 04:44:14;;;;;;;21.07;13.57;;;10.40;99.90;;;;;;5007045;28;20485;-79
2022/12/23 04:46:41;;;;;;;22.60;13.93;;;10.40;99.90;;;;;;5016776;28;20469;-78
2022/12/23 04:49:08;;;;;;;16.40;12.57;;;10.50;99.90;;;;;;5005280;28;21009;-78
2022/12/23 04:51:34;;;;;;;21.27;12.30;;;10.50;99.90;;;;;;4996935;28;20468;-80
2022/12/23 04:54:03;;;;;;;17.20;11.47;;;10.50;99.90;;;;;;5003871;28;21259;-78
2022/12/23 04:56:30;;;;;;;16.87;11.73;;;10.50;99.90;;;;;;5016313;28;20461;-77
2022/12/23 04:58:56;;;;;;;18.80;11.90;;;10.50;99.90;;;;;;5015424;28;20509;-79
2022/12/23 05:01:23;;;;;;;18.10;11.03;;;10.50;99.90;;;;;;5016464;28;20456;-80
2022/12/23 05:03:50;;;;;;;12.90;10.57;;;10.50;99.90;;;;;;5014040;28;20510;-78
2022/12/23 05:06:17;;;;;;;14.83;11.30;;;10.50;99.90;;;;;;5016938;28;20467;-80
2022/12/23 05:08:43;;;;;;;15.73;10.20;;;10.50;99.90;;;;;;5015787;28;20449;-80
2022/12/23 05:11:12;;;;;;;19.93;10.67;;;10.50;99.90;;;;;;5016120;28;20465;-79
2022/12/23 05:13:38;;;;;;;14.63;10.77;;;10.40;99.90;;;;;;5008375;28;20473;-79
2022/12/23 05:16:06;;;;;;;15.80;10.97;;;10.50;99.90;;;;;;4996742;28;20468;-79
2022/12/23 05:18:33;;;;;;;18.10;10.60;;;10.40;99.90;;;;;;4995992;28;21085;-78
2022/12/23 05:21:00;;;;;;;16.53;8.73;;;10.50;99.90;;;;;;4996994;28;20458;-78
2022/12/23 05:23:26;;;;;;;16.73;10.30;;;10.40;99.90;;;;;;5010891;28;20486;-79
2022/12/23 05:25:54;;;;;;;11.73;8.57;;;10.50;99.90;;;;;;5014053;28;20451;-78
2022/12/23 05:28:23;;;;;;;12.37;9.40;;;10.50;99.90;;;;;;5008716;28;20449;-78
2022/12/23 05:30:50;;;;;;;14.43;10.50;;;10.50;99.90;;;;;;5017175;28;20478;-80
2022/12/23 05:33:16;;;;;;;11.43;9.30;;;10.50;99.90;;;;;;5004453;28;20477;-81
2022/12/23 05:35:43;;;;;;;12.13;8.23;;;10.50;99.90;;;;;;4997970;28;20462;-83
2022/12/23 05:38:10;;;;;;;13.47;10.83;;;10.40;99.90;;;;;;5007474;28;20481;-81
2022/12/23 05:40:37;;;;;;;16.63;11.57;;;10.50;99.90;;;;;;5012476;28;20540;-80
2022/12/23 05:43:04;;;;;;;15.90;11.23;;;10.40;99.90;;;;;;4997432;28;20482;-81
2022/12/23 05:45:35;;;;;;;14.40;8.57;;;10.50;99.90;;;;;;4999322;28;20475;-81
2022/12/23 05:48:02;;;;;;;16.33;9.80;;;10.50;99.90;;;;;;5015665;28;20434;-81
2022/12/23 05:50:29;;;;;;;15.90;10.60;;;10.40;99.90;;;;;;5014660;28;20459;-82
2022/12/23 05:52:56;;;;;;;15.23;9.43;;;10.40;99.90;;;;;;4997422;28;20449;-81
2022/12/23 05:55:23;;;;;;;10.80;8.40;;;10.40;99.90;;;;;;4998480;28;20458;-80
2022/12/23 05:57:50;;;;;;;14.63;8.13;;;10.40;99.90;;;;;;5018846;28;20499;-78
2022/12/23 06:00:17;;;;;;;12.50;8.10;;;10.40;99.90;;;;;;5017288;28;20483;-79
2022/12/23 06:02:46;;;;;;;11.57;8.20;;;10.40;99.90;;;;;;5000370;28;20487;-80
2022/12/23 06:05:13;;;;;;;10.67;7.43;;;10.40;99.90;;;;;;5013100;28;20460;-80
2022/12/23 06:07:41;;;;;;;14.20;9.20;;;10.40;99.90;;;;;;5022571;28;20453;-78
2022/12/23 06:10:10;;;;;;;8.63;7.63;;;10.40;99.90;;;;;;5013484;28;20512;-82
2022/12/23 06:12:37;;;;;;;58.23;19.33;;;10.40;99.90;;;;;;5017294;28;20512;-83
2022/12/23 06:15:04;;;;;;;9.00;6.83;;;10.40;99.90;;;;;;5017006;28;20502;-80
2022/12/23 06:17:31;;;;;;;14.40;9.70;;;10.40;99.90;;;;;;5025135;28;20483;-82
2022/12/23 06:20:00;;;;;;;16.70;11.17;;;10.40;99.90;;;;;;5010207;28;20522;-83
2022/12/23 06:22:27;;;;;;;17.07;10.77;;;10.40;99.90;;;;;;5009592;28;20483;-83
2022/12/23 06:24:53;;;;;;;16.87;12.30;;;10.40;99.90;;;;;;5018012;28;20990;-81
2022/12/23 06:27:20;;;;;;;15.73;12.20;;;10.40;99.90;;;;;;5017836;28;20460;-82
2022/12/23 06:29:47;;;;;;;17.10;12.10;;;10.40;99.90;;;;;;4998375;28;20541;-81
2022/12/23 06:32:14;;;;;;;17.63;12.87;;;10.40;99.90;;;;;;5006346;28;20458;-82
2022/12/23 06:34:41;;;;;;;16.10;12.53;;;10.40;99.90;;;;;;4998650;28;20860;-82
2022/12/23 06:37:09;;;;;;;20.03;12.80;;;10.40;99.90;;;;;;4997628;28;20464;-82
2022/12/23 06:39:36;;;;;;;19.60;13.47;;;10.40;99.90;;;;;;4997857;28;20512;-82
2022/12/23 06:42:03;;;;;;;20.43;14.60;;;10.40;99.90;;;;;;4998040;28;20956;-82
2022/12/23 06:44:30;;;;;;;18.30;12.87;;;10.30;99.90;;;;;;4998327;28;20474;-81
2022/12/23 06:46:57;;;;;;;19.40;14.90;;;10.30;99.90;;;;;;4998376;28;20458;-82
2022/12/23 06:49:23;;;;;;;17.33;12.90;;;10.40;99.90;;;;;;4998174;28;20464;-82
2022/12/23 06:51:50;;;;;;;17.73;12.70;;;10.40;99.90;;;;;;4998997;28;20532;-82
2022/12/23 06:54:18;;;;;;;18.63;12.77;;;10.40;99.90;;;;;;4998542;28;20568;-81
2022/12/23 06:56:45;;;;;;;17.80;12.73;;;10.40;99.90;;;;;;4999618;28;20434;-83
2022/12/23 06:59:12;;;;;;;18.53;13.67;;;10.40;99.90;;;;;;4998709;28;20561;-83
2022/12/23 07:01:39;;;;;;;15.40;12.13;;;10.40;99.90;;;;;;5008948;28;20469;-83
2022/12/23 07:04:06;;;;;;;19.33;11.90;;;10.40;99.90;;;;;;5034750;22;20490;-81
2022/12/23 07:06:33;;;;;;;19.53;12.47;;;10.30;99.90;;;;;;5045513;28;20477;-81
2022/12/23 07:08:59;;;;;;;17.33;11.27;;;10.40;99.90;;;;;;5046344;28;20461;-81
2022/12/23 07:11:28;;;;;;;18.43;12.10;;;10.40;99.90;;;;;;5035304;28;20530;-82
2022/12/23 07:13:54;;;;;;;18.37;12.53;;;10.40;99.90;;;;;;5034636;28;20461;-80
2022/12/23 07:16:21;;;;;;;21.13;13.53;;;10.40;99.90;;;;;;5028247;28;20531;-81
2022/12/23 07:18:48;;;;;;;20.60;13.53;;;10.40;99.90;;;;;;5009694;28;20553;-84
2022/12/23 07:21:15;;;;;;;20.13;13.63;;;10.40;99.90;;;;;;5016196;28;20449;-82
2022/12/23 07:23:42;;;;;;;19.47;13.50;;;10.30;99.90;;;;;;5020137;28;20895;-80
2022/12/23 07:26:08;;;;;;;19.20;13.90;;;10.30;99.90;;;;;;5019099;28;20471;-82
2022/12/23 07:28:37;;;;;;;22.17;13.83;;;10.30;99.90;;;;;;5013201;28;20547;-81
2022/12/23 07:31:06;;;;;;;22.90;13.90;;;10.30;99.90;;;;;;5011780;28;20459;-82
2022/12/23 07:33:33;;;;;;;21.93;14.70;;;10.30;99.90;;;;;;5020508;28;20466;-84
2022/12/23 07:36:00;;;;;;;21.67;15.20;;;10.40;99.90;;;;;;5015434;28;20470;-82
2022/12/23 07:38:27;;;;;;;25.37;17.40;;;10.40;99.90;;;;;;5003048;28;20568;-85
2022/12/23 07:40:53;;;;;;;20.27;14.70;;;10.40;99.90;;;;;;5035404;28;21016;-82
2022/12/23 07:43:20;;;;;;;19.50;13.77;;;10.40;99.90;;;;;;5027985;28;20448;-82
2022/12/23 07:45:48;;;;;;;22.00;15.37;;;10.40;99.90;;;;;;5015890;28;20991;-83
2022/12/23 07:48:16;;;;;;;21.27;14.30;;;10.30;99.90;;;;;;5021637;28;20445;-84
2022/12/23 07:50:43;;;;;;;25.00;15.17;;;10.40;99.90;;;;;;5021253;28;20460;-81
2022/12/23 07:53:09;;;;;;;24.80;17.00;;;10.30;99.90;;;;;;5017770;28;20562;-82
2022/12/23 07:55:36;;;;;;;19.43;13.30;;;10.30;99.90;;;;;;5016616;28;20508;-81
2022/12/23 07:58:07;;;;;;;22.63;14.10;;;10.30;99.90;;;;;;5015797;28;20476;-82
2022/12/23 08:00:34;;;;;;;19.07;12.63;;;10.30;99.90;;;;;;5020563;28;20446;-81
2022/12/23 08:03:02;;;;;;;21.37;13.60;;;10.30;99.90;;;;;;5016481;28;20452;-82
2022/12/23 08:05:29;;;;;;;20.47;13.70;;;10.30;99.90;;;;;;5010466;28;20488;-79
2022/12/23 08:07:56;;;;;;;30.20;16.70;;;10.30;99.90;;;;;;4996627;28;21058;-82
2022/12/23 08:10:22;;;;;;;21.50;13.00;;;10.30;99.90;;;;;;5005069;28;20455;-82
2022/12/23 08:12:49;;;;;;;24.20;15.37;;;10.40;99.90;;;;;;5017282;28;20456;-84
2022/12/23 08:15:16;;;;;;;21.77;13.50;;;10.40;99.90;;;;;;5017415;28;20485;-81
2022/12/23 08:17:43;;;;;;;21.93;13.30;;;10.40;99.90;;;;;;5018017;28;21017;-81
2022/12/23 08:20:12;;;;;;;26.80;15.30;;;10.40;99.90;;;;;;5017978;28;20523;-80
2022/12/23 08:22:38;;;;;;;20.20;13.27;;;10.40;99.90;;;;;;5016857;28;20462;-81
2022/12/23 08:25:06;;;;;;;24.53;14.43;;;10.40;99.90;;;;;;5017656;28;20893;-79
2022/12/23 08:27:33;;;;;;;25.20;14.50;;;10.40;99.90;;;;;;5015981;28;20952;-81
2022/12/23 08:30:00;;;;;;;22.83;14.27;;;10.40;99.90;;;;;;5016779;28;20458;-81
2022/12/23 08:32:27;;;;;;;21.90;12.67;;;10.50;99.90;;;;;;5017753;28;20466;-84
2022/12/23 08:34:56;;;;;;;23.53;13.80;;;10.50;99.90;;;;;;5034000;28;20559;-82
2022/12/23 08:37:24;;;;;;;21.10;14.07;;;10.50;99.90;;;;;;5037477;28;20452;-81
2022/12/23 08:39:51;;;;;;;20.50;13.10;;;10.60;99.90;;;;;;5023923;28;20881;-80
2022/12/23 08:42:19;;;;;;;22.07;12.87;;;10.60;99.90;;;;;;5017291;28;20463;-80
2022/12/23 08:44:46;;;;;;;19.10;12.97;;;10.60;99.90;;;;;;5012803;28;20470;-78
2022/12/23 08:47:12;;;;;;;23.03;12.27;;;10.60;99.90;;;;;;5018434;28;20456;-79
2022/12/23 08:49:39;;;;;;;21.80;12.17;;;10.60;99.90;;;;;;5020904;28;20474;-79
2022/12/23 08:52:06;;;;;;;25.57;14.40;;;10.60;99.90;;;;;;5039612;28;20551;-79
2022/12/23 08:54:34;;;;;;;22.20;14.13;;;10.60;99.90;;;;;;5025587;28;20562;-79
2022/12/23 08:57:01;;;;;;;22.00;13.43;;;10.50;99.90;;;;;;5036546;28;20453;-80
2022/12/23 08:59:28;;;;;;;24.17;12.87;;;10.50;99.90;;;;;;5032940;28;20559;-79
2022/12/23 09:01:55;;;;;;;20.60;11.80;;;10.50;99.90;;;;;;5013967;28;20516;-79
2022/12/23 09:04:22;;;;;;;18.33;11.50;;;10.50;99.90;;;;;;5037731;28;20480;-83
2022/12/23 09:06:49;;;;;;;18.80;11.20;;;10.50;99.90;;;;;;5054786;28;20482;-80
2022/12/23 09:09:16;;;;;;;16.70;11.70;;;10.40;99.90;;;;;;5041893;28;20447;-80
2022/12/23 09:11:44;;;;;;;18.47;12.40;;;10.40;99.90;;;;;;5031419;28;20536;-80
2022/12/23 09:14:11;;;;;;;15.30;10.90;;;10.50;99.90;;;;;;5030013;28;20482;-79
2022/12/23 09:16:38;;;;;;;20.63;11.80;;;10.50;99.90;;;;;;5037921;28;20537;-80
2022/12/23 09:19:06;;;;;;;17.23;10.30;;;10.60;99.90;;;;;;5050976;28;20483;-79
2022/12/23 09:21:33;;;;;;;15.97;9.90;;;10.60;99.90;;;;;;5035279;28;20455;-79
2022/12/23 09:24:00;;;;;;;20.73;11.80;;;10.50;99.90;;;;;;5032281;28;20467;-79
2022/12/23 09:26:28;;;;;;;12.43;9.10;;;10.60;99.90;;;;;;5028290;28;20472;-80
2022/12/23 09:28:57;;;;;;;21.03;10.57;;;10.70;99.90;;;;;;5025068;28;20441;-80
2022/12/23 09:31:24;;;;;;;19.87;10.50;;;10.70;99.90;;;;;;5041236;28;20532;-79
2022/12/23 09:33:52;;;;;;;16.10;10.07;;;10.50;99.90;;;;;;5046897;28;20454;-79
2022/12/23 09:36:20;;;;;;;18.80;10.47;;;10.50;99.90;;;;;;5033881;28;20483;-79
2022/12/23 09:38:47;;;;;;;14.83;10.67;;;10.70;99.90;;;;;;5032748;28;20487;-80
2022/12/23 09:41:26;;;;;;;21.67;10.73;;;10.60;99.90;;;;;;5021529;28;20492;-79
2022/12/23 09:44:08;;;;;;;14.53;10.00;;;10.60;99.90;;;;;;5018481;28;20496;-77
2022/12/23 09:46:42;;;;;;;18.13;9.40;;;10.70;99.90;;;;;;4999472;28;20536;-79
2022/12/23 09:49:12;;;;;;;15.63;10.30;;;10.70;99.90;;;;;;4998944;28;20442;-76
2022/12/23 09:51:39;;;;;;;14.60;9.10;;;10.80;99.90;;;;;;5037383;28;20448;-79
2022/12/23 09:54:13;;;;;;;19.03;10.53;;;10.80;99.90;;;;;;5033560;28;20463;-78
2022/12/23 09:56:47;;;;;;;18.67;10.00;;;10.80;99.90;;;;;;5024595;28;20481;-78
2022/12/23 09:59:24;;;;;;;16.80;8.57;;;10.80;99.90;;;;;;5033290;28;20498;-80
2022/12/23 10:01:57;;;;;;;20.23;12.03;;;10.90;99.90;;;;;;5046075;28;20535;-80
2022/12/23 10:04:39;;;;;;;15.83;10.07;;;10.70;99.90;;;;;;5040492;28;20481;-81
2022/12/23 10:07:21;;;;;;;14.50;9.70;;;10.60;99.90;;;;;;5035368;28;20539;-78
2022/12/23 10:09:52;;;;;;;19.00;11.13;;;10.80;99.90;;;;;;5047748;28;20451;-79
2022/12/23 10:12:29;;;;;;;19.50;10.93;;;10.80;99.90;;;;;;5040383;28;20821;-80
2022/12/23 10:15:00;;;;;;;15.70;9.83;;;10.80;99.90;;;;;;5028787;28;20483;-79
2022/12/23 10:17:30;;;;;;;15.67;11.00;;;10.80;99.90;;;;;;5045099;28;20516;-80
2022/12/23 10:20:03;;;;;;;17.83;10.17;;;10.90;99.90;;;;;;5048967;28;20495;-79
2022/12/23 10:22:36;;;;;;;15.27;10.30;;;11.00;99.90;;;;;;5028651;28;20457;-80
2022/12/23 10:25:10;;;;;;;17.70;10.93;;;10.80;99.90;;;;;;5030898;28;20505;-80
2022/12/23 10:27:40;;;;;;;16.77;10.93;;;11.00;99.90;;;;;;5011428;28;20488;-80
2022/12/23 10:30:13;;;;;;;16.00;10.10;;;10.90;99.90;;;;;;5017594;28;20449;-79
2022/12/23 10:32:51;;;;;;;14.90;9.60;;;11.00;99.90;;;;;;5028976;28;20461;-79
2022/12/23 10:35:33;;;;;;;14.73;11.10;;;11.00;99.90;;;;;;5028592;28;20555;-79
2022/12/23 10:38:11;;;;;;;12.53;9.37;;;11.10;99.90;;;;;;5025656;28;20513;-79
2022/12/23 10:40:45;;;;;;;16.33;9.87;;;11.10;99.90;;;;;;5025097;28;20913;-80
2022/12/23 10:43:33;;;;;;;14.57;9.50;;;11.00;99.90;;;;;;5024644;28;20458;-80
2022/12/23 10:46:11;;;;;;;15.90;9.40;;;11.10;99.90;;;;;;5024787;28;20483;-80
2022/12/23 10:48:50;;;;;;;13.63;8.80;;;11.00;99.90;;;;;;5023630;28;20487;-81
2022/12/23 10:51:21;;;;;;;12.50;8.33;;;11.10;99.90;;;;;;5024232;28;20444;-78
2022/12/23 10:53:51;;;;;;;12.93;9.23;;;11.20;99.90;;;;;;5025010;28;20976;-80
2022/12/23 10:56:19;;;;;;;11.57;8.97;;;11.10;99.90;;;;;;5025261;28;20477;-79
2022/12/23 10:58:50;;;;;;;10.67;7.33;;;11.30;99.90;;;;;;5024493;28;20487;-80
2022/12/23 11:01:19;;;;;;;12.60;8.63;;;11.30;99.90;;;;;;5024223;28;20445;-78
2022/12/23 11:03:54;;;;;;;12.73;8.70;;;11.20;99.90;;;;;;5024293;28;20463;-79
2022/12/23 11:06:21;;;;;;;13.20;7.93;;;11.20;99.90;;;;;;5026312;28;20495;-79
2022/12/23 11:08:48;;;;;;;17.83;9.40;;;11.10;99.90;;;;;;5044125;28;20494;-80
2022/12/23 11:11:15;;;;;;;22.43;15.70;;;11.10;99.90;;;;;;5044850;28;20952;-80
2022/12/23 11:13:44;;;;;;;9.70;7.53;;;11.10;99.90;;;;;;5045562;28;20506;-79
2022/12/23 11:16:24;;;;;;;13.37;8.07;;;11.30;99.90;;;;;;5045402;28;20944;-80
2022/12/23 11:18:57;;;;;;;16.33;8.33;;;11.20;99.90;;;;;;5044256;28;20440;-80
2022/12/23 11:21:25;;;;;;;9.87;7.30;;;11.30;99.90;;;;;;5042628;28;20924;-79
2022/12/23 11:24:08;;;;;;;10.57;8.20;;;11.40;99.90;;;;;;5039192;28;20953;-78
2022/12/23 11:26:35;;;;;;;12.83;8.10;;;11.30;99.90;;;;;;5043013;28;20452;-81
2022/12/23 11:29:06;;;;;;;16.07;9.33;;;11.30;99.90;;;;;;5041802;28;20448;-80
2022/12/23 11:31:35;;;;;;;15.43;8.80;;;11.40;99.90;;;;;;5044059;28;20514;-79
2022/12/23 11:34:06;;;;;;;12.40;9.63;;;11.40;99.90;;;;;;5045616;28;20461;-81
2022/12/23 11:36:34;;;;;;;10.00;8.57;;;11.60;99.90;;;;;;5044887;28;20456;-79
2022/12/23 11:39:07;;;;;;;10.60;7.50;;;11.60;99.90;;;;;;5043078;28;20456;-80
2022/12/23 11:41:38;;;;;;;13.13;8.57;;;11.40;99.90;;;;;;5045060;28;20531;-79
2022/12/23 11:44:11;;;;;;;12.13;8.63;;;11.60;99.90;;;;;;5044607;28;20482;-80
2022/12/23 11:46:39;;;;;;;11.87;8.97;;;11.50;99.90;;;;;;5044050;28;20449;-80
2022/12/23 11:49:13;;;;;;;10.87;8.00;;;11.60;99.90;;;;;;5047438;28;20885;-78
2022/12/23 11:51:41;;;;;;;14.40;8.90;;;11.70;99.90;;;;;;5050309;28;20532;-79
2022/12/23 11:54:18;;;;;;;12.23;7.77;;;11.70;99.90;;;;;;5050253;28;20462;-80
2022/12/23 11:56:50;;;;;;;11.37;7.40;;;11.70;99.90;;;;;;5047857;28;20448;-81
2022/12/23 11:59:29;;;;;;;12.37;8.07;;;11.60;99.90;;;;;;5048402;28;20492;-79
2022/12/23 12:01:59;;;;;;;11.50;8.60;;;11.50;99.90;;;;;;5044775;28;20519;-79
2022/12/23 12:04:30;;;;;;;12.60;9.03;;;11.50;99.90;;;;;;5039847;28;20488;-79
2022/12/23 12:06:57;;;;;;;8.73;6.97;;;11.40;99.90;;;;;;5039306;28;20452;-79
2022/12/23 12:09:25;;;;;;;8.60;7.30;;;11.30;99.90;;;;;;5038780;28;20543;-79
2022/12/23 12:11:56;;;;;;;9.60;7.87;;;11.40;99.90;;;;;;5037636;28;20463;-79
2022/12/23 12:14:29;;;;;;;11.70;8.70;;;11.30;99.90;;;;;;5000027;28;20497;-79
2022/12/23 12:17:07;;;;;;;8.70;7.10;;;11.40;99.90;;;;;;5000586;28;20457;-79
2022/12/23 12:19:39;;;;;;;10.83;8.43;;;11.50;99.90;;;;;;4999724;28;20478;-79
2022/12/23 12:22:12;;;;;;;9.40;7.97;;;11.50;99.90;;;;;;5000957;28;20454;-78
2022/12/23 12:24:42;;;;;;;11.67;8.33;;;11.40;99.90;;;;;;5029494;28;20473;-79
2022/12/23 12:27:11;;;;;;;13.87;6.83;;;11.20;99.90;;;;;;5039580;28;20555;-80
2022/12/23 12:29:43;;;;;;;7.30;6.50;;;11.30;99.90;;;;;;5023593;28;20446;-79
2022/12/23 12:32:19;;;;;;;9.53;7.70;;;11.20;99.90;;;;;;5007811;28;20456;-80
2022/12/23 12:34:52;;;;;;;8.80;6.93;;;11.20;99.90;;;;;;5020163;28;20938;-82
2022/12/23 12:37:29;;;;;;;8.90;6.97;;;11.30;99.90;;;;;;5019609;28;20873;-81
2022/12/23 12:40:00;;;;;;;9.63;6.67;;;11.30;99.90;;;;;;5020362;28;20477;-81
2022/12/23 12:42:32;;;;;;;8.80;6.33;;;11.20;99.90;;;;;;5025487;28;20450;-81
2022/12/23 12:45:09;;;;;;;8.47;5.50;;;11.30;99.90;;;;;;5023647;28;20499;-80
2022/12/23 12:47:41;;;;;;;9.07;6.97;;;11.20;99.90;;;;;;5040715;28;20512;-80
2022/12/23 12:50:13;;;;;;;6.23;5.37;;;11.30;99.90;;;;;;5031954;28;20461;-80
2022/12/23 12:52:42;;;;;;;6.30;5.40;;;11.30;99.90;;;;;;5020421;28;20809;-80
2022/12/23 12:55:18;;;;;;;10.17;6.70;;;11.30;99.90;;;;;;5032608;28;20465;-80
2022/12/23 12:57:45;;;;;;;7.20;6.03;;;11.30;99.90;;;;;;5021589;28;20444;-79
2022/12/23 13:00:17;;;;;;;8.17;6.63;;;11.30;99.90;;;;;;5020215;28;20584;-81
2022/12/23 13:03:03;;;;;;;7.07;5.87;;;11.30;99.90;;;;;;5034088;28;20497;-80
2022/12/23 13:05:49;;;;;;;9.13;6.43;;;11.30;99.90;;;;;;5071967;22;20502;-81
2022/12/23 13:08:28;;;;;;;8.50;5.87;;;11.30;99.90;;;;;;5015518;28;20532;-81
2022/12/23 13:10:59;;;;;;;7.10;5.40;;;11.20;99.90;;;;;;5012011;28;20452;-81
2022/12/23 13:13:41;;;;;;;6.00;5.40;;;11.20;99.90;;;;;;5019758;28;20511;-81